Time;durP1;ratioP1;P1;durP2;ratioP2;P2;SDS_P1;SDS_P2;PMS_P1;PMS_P2;Temp;Humidity;BMP_temperature;BMP_pressure;BME280_temperature;BME280_humidity;BME280_pressure;Samples;Min_cycle;Max_cycle;Signal;HPM_P1;HPM_P2
2021/05/13 00:00:01;;;;;;;13.70;11.48;;;10.80;99.90;;;12.26;88.28;99949.94;5056622;28;20155;-84
2021/05/13 00:02:27;;;;;;;13.57;10.93;;;10.70;99.90;;;12.25;88.28;99951.09;5055025;28;20025;-83
2021/05/13 00:04:53;;;;;;;13.88;11.32;;;10.70;99.90;;;12.19;88.79;99947.06;5053739;28;20388;-83
2021/05/13 00:07:19;;;;;;;12.23;10.38;;;10.70;99.90;;;12.15;89.05;99952.63;5035862;28;20053;-84
2021/05/13 00:09:46;;;;;;;12.73;10.68;;;10.60;99.90;;;12.08;89.07;99944.16;5053424;28;20081;-83
2021/05/13 00:12:36;;;;;;;15.52;12.20;;;10.60;99.90;;;12.03;88.97;99945.31;5052928;28;20373;-82
2021/05/13 00:15:33;;;;;;;13.07;11.00;;;10.50;99.90;;;12.00;89.27;99957.28;5058703;28;20104;-84
2021/05/13 00:17:59;;;;;;;15.45;10.85;;;10.50;99.90;;;11.96;89.51;99947.22;5051258;28;20067;-85
2021/05/13 00:20:35;;;;;;;15.15;12.02;;;10.40;99.90;;;11.94;89.69;99949.63;5051334;28;20060;-81
2021/05/13 00:23:03;;;;;;;18.15;14.30;;;10.40;99.90;;;11.92;90.33;99950.00;5050848;28;20384;-83
2021/05/13 00:25:29;;;;;;;17.80;15.38;;;10.40;99.90;;;11.84;90.49;99951.13;5052067;28;20086;-84
2021/05/13 00:27:56;;;;;;;22.75;14.80;;;10.40;99.90;;;11.83;90.33;99951.50;5052695;28;20025;-84
2021/05/13 00:30:23;;;;;;;18.58;14.95;;;10.30;99.90;;;11.76;89.81;99954.19;5052485;28;20104;-82
2021/05/13 00:32:51;;;;;;;18.05;14.77;;;10.30;99.90;;;11.71;89.43;99951.75;5051293;28;20059;-83
2021/05/13 00:35:18;;;;;;;17.75;13.43;;;10.20;99.90;;;11.69;89.81;99940.91;5052842;28;20021;-83
2021/05/13 00:37:46;;;;;;;17.50;13.68;;;10.20;99.90;;;11.61;89.33;99954.03;5052523;28;20049;-80
2021/05/13 00:40:15;;;;;;;15.35;12.60;;;10.20;99.90;;;11.54;89.49;99956.72;5053139;28;20037;-82
2021/05/13 00:42:42;;;;;;;15.43;13.13;;;10.10;99.90;;;11.48;89.12;99952.66;5052571;28;20092;-85
2021/05/13 00:45:13;;;;;;;17.13;12.70;;;10.00;99.90;;;11.39;89.85;99948.56;5053050;28;20491;-82
2021/05/13 00:48:02;;;;;;;19.02;12.07;;;9.90;99.90;;;11.29;90.14;99954.81;5058799;28;20029;-82
2021/05/13 00:50:32;;;;;;;13.32;11.93;;;9.80;99.90;;;11.18;90.75;99954.66;5058804;28;20109;-84
2021/05/13 00:53:04;;;;;;;16.60;11.85;;;9.80;99.90;;;11.07;90.78;99946.16;5059075;28;20111;-81
2021/05/13 00:55:33;;;;;;;14.82;13.23;;;9.60;99.90;;;10.95;90.89;99951.94;5058412;28;20057;-83
2021/05/13 00:57:59;;;;;;;18.58;13.75;;;9.50;99.90;;;10.85;91.29;99933.03;5058631;28;20037;-81
2021/05/13 01:02:58;;;;;;;19.33;14.05;;;9.40;99.90;;;10.78;92.15;99948.91;5059258;28;20040;-85
2021/05/13 01:05:26;;;;;;;15.75;13.98;;;9.30;99.90;;;10.74;92.30;99942.47;5062986;28;20056;-86
2021/05/13 01:07:52;;;;;;;19.15;14.50;;;9.30;99.90;;;10.75;92.82;99942.09;5056255;28;20025;-86
2021/05/13 01:10:20;;;;;;;17.25;14.57;;;9.30;99.90;;;10.69;93.06;99940.00;5060579;28;20028;-84
2021/05/13 01:12:47;;;;;;;16.85;13.60;;;9.30;99.90;;;10.64;93.14;99941.13;5079147;28;20031;-86
2021/05/13 01:15:54;;;;;;;18.65;13.88;;;9.20;99.90;;;10.59;93.35;99941.44;5070409;28;20024;-84
2021/05/13 01:20:36;;;;;;;18.73;14.27;;;9.10;99.90;;;10.40;93.32;99935.94;5095903;28;20054;-83
2021/05/13 01:23:07;;;;;;;19.17;13.27;;;9.00;99.90;;;10.34;93.52;99938.22;5069847;28;20224;-81
2021/05/13 01:25:52;;;;;;;18.55;13.80;;;8.90;99.90;;;10.28;93.77;99939.72;5077910;28;20427;-83
2021/05/13 01:28:27;;;;;;;19.93;14.37;;;8.80;99.90;;;10.23;93.70;99940.06;5078510;28;20028;-86
2021/05/13 01:30:55;;;;;;;16.50;12.27;;;8.80;99.90;;;10.17;93.88;99937.94;5061861;28;20024;-87
2021/05/13 01:33:26;;;;;;;16.75;14.05;;;8.80;99.90;;;10.10;94.26;99941.38;5098127;28;20100;-79
2021/05/13 01:35:52;;;;;;;18.90;14.63;;;8.70;99.90;;;10.03;94.18;99946.84;5084381;28;20128;-85
2021/05/13 01:38:23;;;;;;;20.27;15.13;;;8.70;99.90;;;9.99;94.34;99941.19;5058117;28;20518;-82
2021/05/13 01:41:01;;;;;;;16.02;13.80;;;8.60;99.90;;;9.96;94.55;99933.56;5074797;28;20033;-84
2021/05/13 01:43:31;;;;;;;15.85;13.70;;;8.60;99.90;;;9.97;94.59;99937.16;5057201;28;20032;-83
2021/05/13 01:46:00;;;;;;;19.52;15.45;;;8.60;99.90;;;9.93;94.70;99928.72;5074913;28;20020;-84
2021/05/13 01:48:28;;;;;;;19.60;15.68;;;8.50;99.90;;;9.94;94.82;99938.72;5075172;28;20454;-82
2021/05/13 01:50:54;;;;;;;17.55;14.23;;;8.60;99.90;;;9.92;94.68;99940.28;5057340;28;20042;-83
2021/05/13 01:53:21;;;;;;;17.98;14.10;;;8.50;99.90;;;9.82;94.33;99936.13;5075130;28;20036;-80
2021/05/13 01:55:49;;;;;;;17.95;14.57;;;8.50;99.90;;;9.75;94.55;99935.16;5056347;28;20040;-83
2021/05/13 01:58:15;;;;;;;20.70;14.93;;;8.40;99.90;;;9.74;94.61;99937.16;5073924;28;20128;-83
2021/05/13 02:00:44;;;;;;;18.55;14.20;;;8.30;99.90;;;9.70;94.67;99941.03;5074966;28;20029;-83
2021/05/13 02:03:11;;;;;;;22.10;16.27;;;8.30;99.90;;;9.68;95.38;99933.03;5075359;28;20090;-84
2021/05/13 02:05:37;;;;;;;20.42;16.02;;;8.30;99.90;;;9.66;95.35;99924.25;5073825;28;20024;-82
2021/05/13 02:08:05;;;;;;;19.73;14.00;;;8.30;99.90;;;9.67;95.34;99920.28;5057293;28;20043;-82
2021/05/13 02:10:31;;;;;;;21.33;17.02;;;8.30;99.90;;;9.64;95.40;99915.44;5053123;28;20021;-82
2021/05/13 02:12:58;;;;;;;21.15;16.92;;;8.20;99.90;;;9.70;95.50;99921.50;5064403;28;20412;-83
2021/05/13 02:15:25;;;;;;;21.67;16.98;;;8.30;99.90;;;9.71;95.61;99914.75;5088494;28;20029;-81
2021/05/13 02:17:52;;;;;;;19.58;15.60;;;8.30;99.90;;;9.69;95.38;99911.56;5072889;28;20029;-80
2021/05/13 02:20:23;;;;;;;16.75;14.48;;;8.30;99.90;;;9.62;95.24;99912.22;5073471;28;20033;-80
2021/05/13 02:22:50;;;;;;;17.67;14.90;;;8.20;99.90;;;9.49;94.92;99908.78;5076305;28;20033;-80
2021/05/13 02:25:16;;;;;;;16.20;12.95;;;8.10;99.90;;;9.40;95.03;99904.63;5076823;28;20041;-83
2021/05/13 02:27:42;;;;;;;17.73;13.65;;;8.00;99.90;;;9.32;95.54;99898.09;5071329;28;20063;-83
2021/05/13 02:30:13;;;;;;;20.73;16.48;;;8.00;99.90;;;9.35;95.60;99900.16;5069492;28;20086;-83
2021/05/13 02:32:40;;;;;;;21.48;15.98;;;8.00;99.90;;;9.36;95.65;99898.97;5054107;28;20451;-83
2021/05/13 02:35:09;;;;;;;17.40;14.45;;;8.00;99.90;;;9.25;95.12;99899.91;5054455;28;20116;-84
2021/05/13 02:37:35;;;;;;;17.80;13.30;;;7.80;99.90;;;9.10;95.12;99896.06;5054812;28;20028;-83
2021/05/13 02:40:01;;;;;;;18.23;14.20;;;7.70;99.90;;;9.04;95.31;99883.59;5054436;28;20396;-84
2021/05/13 02:42:27;;;;;;;16.80;13.63;;;7.70;99.90;;;9.02;95.57;99879.56;5053518;28;20134;-85
2021/05/13 02:44:53;;;;;;;16.40;13.73;;;7.70;99.90;;;8.95;95.74;99888.59;5053999;28;20506;-81
2021/05/13 02:47:19;;;;;;;17.10;13.90;;;7.60;99.90;;;8.94;95.62;99889.75;5053931;28;20404;-85
2021/05/13 02:49:45;;;;;;;28.02;19.20;;;7.60;99.90;;;8.96;96.29;99888.19;5055072;28;20029;-84
2021/05/13 02:52:11;;;;;;;28.77;20.55;;;7.60;99.90;;;9.05;96.64;99882.44;5055087;28;20037;-83
2021/05/13 02:54:37;;;;;;;29.55;22.65;;;7.60;99.90;;;9.12;96.21;99884.56;5053864;28;20345;-83
2021/05/13 02:57:03;;;;;;;25.90;19.00;;;7.70;99.90;;;9.19;96.38;99891.06;5066284;28;20108;-84
2021/05/13 02:59:40;;;;;;;26.85;19.00;;;7.80;99.90;;;9.18;96.35;99889.47;5036903;28;20052;-82
2021/05/13 03:02:07;;;;;;;28.77;19.00;;;7.80;99.90;;;9.19;96.35;99891.06;5054143;28;20029;-83
2021/05/13 03:04:34;;;;;;;21.70;17.30;;;7.80;99.90;;;9.14;95.91;99890.56;5055098;28;20449;-82
2021/05/13 03:07:00;;;;;;;25.27;16.15;;;7.70;99.90;;;9.02;95.92;99881.16;5036420;28;20029;-84
2021/05/13 03:09:25;;;;;;;20.08;16.35;;;7.70;99.90;;;8.97;96.21;99892.59;5042538;28;20032;-83
2021/05/13 03:11:51;;;;;;;21.30;15.18;;;7.60;99.90;;;8.89;96.21;99885.25;5053808;28;20499;-83
2021/05/13 03:14:18;;;;;;;24.20;17.85;;;7.50;99.90;;;8.86;96.58;99876.84;5052757;28;20029;-82
2021/05/13 03:16:43;;;;;;;24.20;18.70;;;7.50;99.90;;;8.84;96.22;99876.41;5052613;28;20440;-81
2021/05/13 03:19:15;;;;;;;28.75;20.27;;;7.50;99.90;;;8.89;96.32;99881.69;5052579;28;20072;-80
2021/05/13 03:21:44;;;;;;;25.33;20.08;;;7.50;99.90;;;8.90;96.75;99892.44;5052813;28;20371;-83
2021/05/13 03:24:29;;;;;;;28.55;21.17;;;7.50;99.90;;;8.92;96.77;99890.13;5053905;28;20053;-84
2021/05/13 03:27:03;;;;;;;26.70;20.73;;;7.50;99.90;;;8.91;97.12;99884.91;5052641;28;20033;-80
2021/05/13 03:29:29;;;;;;;34.65;24.10;;;7.50;99.90;;;8.88;97.51;99885.63;5051940;28;20426;-82
2021/05/13 03:31:54;;;;;;;28.35;20.73;;;7.60;99.90;;;8.89;97.11;99881.69;5053170;28;20108;-82
2021/05/13 03:34:20;;;;;;;39.53;25.75;;;7.60;99.90;;;8.88;97.37;99888.41;5053520;28;20036;-83
2021/05/13 03:36:46;;;;;;;39.28;24.75;;;7.60;99.90;;;8.93;97.49;99877.78;5053428;28;20051;-85
2021/05/13 03:39:12;;;;;;;34.70;22.63;;;7.60;99.90;;;8.93;97.29;99866.66;5054180;28;20253;-80
2021/05/13 03:41:38;;;;;;;29.45;21.10;;;7.60;99.90;;;8.96;97.16;99871.50;5053302;28;20029;-83
2021/05/13 03:44:05;;;;;;;34.13;23.50;;;7.60;99.90;;;8.94;97.02;99868.28;5051980;28;20138;-83
2021/05/13 03:46:32;;;;;;;31.25;21.80;;;7.50;99.90;;;8.95;97.19;99866.28;5052745;28;20025;-86
2021/05/13 03:48:58;;;;;;;33.72;21.90;;;7.50;99.90;;;8.94;97.04;99859.91;5055815;28;20029;-82
2021/05/13 03:51:23;;;;;;;29.08;21.52;;;7.50;99.90;;;8.90;96.99;99863.78;5071985;28;20032;-81
2021/05/13 03:53:49;;;;;;;25.70;19.15;;;7.50;99.90;;;8.84;96.75;99862.47;5063494;28;20064;-82
2021/05/13 03:56:15;;;;;;;23.67;17.77;;;7.50;99.90;;;8.76;96.64;99864.31;5051630;28;20021;-80
2021/05/13 03:58:46;;;;;;;24.77;19.40;;;7.40;99.90;;;8.69;96.82;99860.56;5051350;28;20031;-82
2021/05/13 04:01:17;;;;;;;28.30;19.50;;;7.30;99.90;;;8.60;96.87;99862.75;5050478;28;20481;-82
2021/05/13 04:03:45;;;;;;;27.30;19.50;;;7.20;99.90;;;8.58;96.95;99862.28;5050329;28;20112;-81
2021/05/13 04:06:13;;;;;;;27.48;18.88;;;7.20;99.90;;;8.58;97.07;99859.50;5050378;28;20021;-82
2021/05/13 04:08:39;;;;;;;32.50;19.77;;;7.20;99.90;;;8.60;96.85;99865.53;5052998;28;20124;-81
2021/05/13 04:11:06;;;;;;;28.08;19.63;;;7.20;99.90;;;8.61;97.12;99859.59;5071663;28;20039;-83
2021/05/13 04:13:32;;;;;;;29.02;19.80;;;7.20;99.90;;;8.61;96.92;99856.00;5053826;28;20031;-83
2021/05/13 04:15:59;;;;;;;25.55;18.95;;;7.20;99.90;;;8.57;96.94;99858.72;5072231;28;20392;-83
2021/05/13 04:18:26;;;;;;;24.88;19.58;;;7.20;99.90;;;8.57;96.51;99860.69;5055239;28;20105;-82
2021/05/13 04:20:52;;;;;;;26.52;18.45;;;7.20;99.90;;;8.57;96.56;99864.28;5071752;28;20681;-84
2021/05/13 04:23:18;;;;;;;30.45;21.05;;;7.20;99.90;;;8.61;96.80;99864.34;5054264;28;20057;-86
2021/05/13 04:25:44;;;;;;;27.17;20.73;;;7.20;99.90;;;8.64;96.91;99858.84;5072147;28;20334;-83
2021/05/13 04:28:11;;;;;;;28.35;21.15;;;7.20;99.90;;;8.72;96.56;99860.63;5072218;28;20055;-86
2021/05/13 04:30:38;;;;;;;31.55;21.40;;;7.30;99.90;;;8.74;96.57;99858.28;5072720;28;20033;-83
2021/05/13 04:33:04;;;;;;;28.75;20.30;;;7.30;99.90;;;8.75;96.42;99856.31;5055092;28;20029;-82
2021/05/13 04:35:31;;;;;;;30.42;19.65;;;7.30;99.90;;;8.73;96.54;99858.66;5073224;28;20056;-82
2021/05/13 04:37:57;;;;;;;31.20;21.65;;;7.30;99.90;;;8.74;96.36;99857.47;5071650;28;20103;-82
2021/05/13 04:40:23;;;;;;;29.77;21.10;;;7.30;99.90;;;8.80;96.52;99856.81;5071249;28;20132;-82
2021/05/13 04:42:49;;;;;;;30.45;22.00;;;7.40;99.90;;;8.84;96.23;99857.72;5054031;28;20032;-83
2021/05/13 04:45:15;;;;;;;34.13;21.60;;;7.40;99.90;;;8.86;96.21;99849.00;5055130;28;20453;-86
2021/05/13 04:50:10;;;;;;;32.05;22.20;;;7.50;99.90;;;8.97;96.10;99850.00;5072062;28;20128;-80
2021/05/13 04:52:40;;;;;;;28.55;20.35;;;7.50;99.90;;;9.00;96.02;99843.72;5053899;28;20037;-83
2021/05/13 04:55:08;;;;;;;28.75;21.27;;;7.50;99.90;;;9.06;95.98;99849.78;5053710;28;20032;-80
2021/05/13 04:57:38;;;;;;;27.23;19.50;;;7.60;99.90;;;9.14;95.97;99849.59;5053573;28;20487;-82
2021/05/13 05:00:11;;;;;;;28.38;20.60;;;7.60;99.90;;;9.21;95.99;99848.91;5053203;28;20097;-79
2021/05/13 05:02:37;;;;;;;33.88;23.05;;;7.70;99.90;;;9.24;95.81;99846.19;5053933;28;20028;-80
2021/05/13 05:05:08;;;;;;;34.47;24.02;;;7.70;99.90;;;9.40;95.80;99849.69;5053500;28;20039;-79
2021/05/13 05:07:34;;;;;;;33.88;24.17;;;7.80;99.90;;;9.53;95.40;99844.75;5053636;28;20032;-80
2021/05/13 05:10:00;;;;;;;35.22;23.85;;;8.00;99.90;;;9.71;95.37;99839.47;5053724;28;20032;-80
2021/05/13 05:12:25;;;;;;;34.63;24.85;;;8.10;99.90;;;9.93;95.09;99836.69;5055457;28;20055;-86
2021/05/13 05:14:51;;;;;;;34.97;24.13;;;8.30;99.90;;;10.10;94.67;99840.13;5055314;28;20028;-84
2021/05/13 05:17:17;;;;;;;34.83;23.92;;;8.40;99.90;;;10.19;94.26;99840.69;5071954;28;20028;-82
2021/05/13 05:19:43;;;;;;;32.22;22.50;;;8.50;99.90;;;10.28;93.47;99830.06;5071581;28;20075;-82
2021/05/13 05:22:10;;;;;;;29.77;21.58;;;8.60;99.90;;;10.43;93.47;99832.72;5072575;28;20032;-84
2021/05/13 05:24:36;;;;;;;30.65;22.02;;;8.70;99.90;;;10.64;92.90;99832.19;5054834;28;20031;-82
2021/05/13 05:27:02;;;;;;;29.35;21.17;;;8.80;99.90;;;10.86;92.46;99827.69;5072818;28;20020;-82
2021/05/13 05:29:28;;;;;;;32.90;24.45;;;9.00;99.90;;;11.02;91.81;99829.09;5073481;28;20068;-84
2021/05/13 05:31:54;;;;;;;35.78;25.08;;;9.20;99.90;;;11.25;90.50;99820.59;5056175;28;20040;-82
2021/05/13 05:34:20;;;;;;;32.00;24.80;;;9.40;99.90;;;11.46;89.75;99817.22;5076808;28;20024;-82
2021/05/13 05:36:46;;;;;;;35.53;23.45;;;9.60;99.90;;;11.74;88.99;99816.72;5057257;28;20509;-82
2021/05/13 05:39:12;;;;;;;33.50;23.73;;;9.90;99.90;;;11.99;87.81;99810.13;5057409;28;20118;-83
2021/05/13 05:41:37;;;;;;;34.38;24.25;;;10.10;99.90;;;12.18;86.05;99823.06;5075069;28;20021;-81
2021/05/13 05:44:04;;;;;;;30.02;23.17;;;10.30;99.90;;;12.49;85.47;99816.09;5056527;28;20322;-79
2021/05/13 05:46:37;;;;;;;31.25;22.50;;;10.50;99.90;;;12.82;85.04;99821.47;5075523;28;20016;-82
2021/05/13 05:49:03;;;;;;;28.02;22.58;;;10.80;99.90;;;13.12;83.88;99816.44;5059285;28;20039;-84
2021/05/13 05:51:29;;;;;;;32.97;23.40;;;11.10;99.90;;;13.41;82.65;99822.09;5058509;28;20032;-84
2021/05/13 05:53:55;;;;;;;35.80;22.77;;;11.40;99.90;;;13.56;80.73;99816.13;5058126;28;20097;-85
2021/05/13 05:56:21;;;;;;;30.27;21.85;;;11.60;99.90;;;13.66;80.04;99825.75;5075934;28;20029;-83
2021/05/13 05:58:47;;;;;;;29.70;22.02;;;11.70;99.90;;;13.82;78.80;99812.16;5057811;28;20115;-87
2021/05/13 06:01:13;;;;;;;30.20;22.17;;;11.80;99.90;;;14.02;78.15;99802.13;5076629;28;20092;-84
2021/05/13 06:03:39;;;;;;;29.33;22.40;;;12.00;99.90;;;14.35;78.53;99811.38;5077443;28;20028;-83
2021/05/13 06:06:05;;;;;;;27.40;21.30;;;12.40;99.90;;;14.66;77.00;99804.88;5078678;28;20029;-79
2021/05/13 06:08:30;;;;;;;24.17;19.10;;;12.60;99.90;;;14.88;75.84;99805.59;5078525;28;20081;-82
2021/05/13 06:10:56;;;;;;;27.40;20.45;;;12.80;99.90;;;15.11;74.79;99803.88;5066363;28;20033;-81
2021/05/13 06:13:22;;;;;;;24.80;19.13;;;13.00;99.90;;;15.31;73.41;99795.75;5067534;28;20029;-79
2021/05/13 06:15:48;;;;;;;26.48;19.67;;;13.20;99.90;;;15.57;72.13;99803.63;5055222;28;20542;-81
2021/05/13 06:18:14;;;;;;;28.05;21.58;;;13.40;99.90;;;15.64;72.55;99795.16;5053603;28;20028;-81
2021/05/13 06:20:39;;;;;;;26.73;20.13;;;13.50;99.90;;;15.62;72.04;99799.59;5053093;28;20122;-81
2021/05/13 06:23:08;;;;;;;24.80;20.05;;;13.60;99.90;;;15.80;71.34;99794.63;5053902;28;20025;-80
2021/05/13 06:25:36;;;;;;;26.95;19.50;;;13.80;99.90;;;15.99;71.74;99782.81;5054315;28;20472;-80
2021/05/13 06:28:03;;;;;;;22.70;20.02;;;14.00;99.90;;;16.22;70.94;99791.44;5058261;28;20029;-80
2021/05/13 06:30:30;;;;;;;29.58;20.35;;;14.20;99.90;;;16.54;69.27;99793.94;5057491;28;20017;-81
2021/05/13 06:32:57;;;;;;;24.77;19.92;;;14.40;99.90;;;16.65;69.59;99794.69;5053832;28;20285;-80
2021/05/13 06:35:23;;;;;;;26.40;19.67;;;14.60;99.90;;;17.04;67.27;99794.22;5052540;28;20029;-80
2021/05/13 06:37:49;;;;;;;26.77;21.65;;;14.80;99.90;;;17.35;66.16;99792.97;5053265;28;20128;-81
2021/05/13 06:40:18;;;;;;;29.23;22.42;;;15.10;99.90;;;17.69;64.50;99792.13;5053887;28;20121;-80
2021/05/13 06:42:45;;;;;;;31.50;21.17;;;15.40;99.90;;;17.90;64.04;99786.94;5069433;28;20029;-81
2021/05/13 06:45:13;;;;;;;27.85;22.10;;;15.60;99.90;;;18.19;62.21;99792.91;5053110;28;20411;-82
2021/05/13 06:47:39;;;;;;;27.42;23.02;;;15.90;99.90;;;18.51;61.29;99781.03;5052867;28;20029;-81
2021/05/13 06:50:07;;;;;;;26.52;21.00;;;16.10;99.90;;;18.77;60.45;99787.81;5054221;28;20025;-79
2021/05/13 06:52:35;;;;;;;32.10;25.23;;;16.40;99.90;;;18.70;60.87;99779.47;5052768;28;20047;-81
2021/05/13 06:55:04;;;;;;;28.85;22.20;;;16.60;99.90;;;19.19;59.08;99777.63;5053014;28;20032;-83
2021/05/13 06:57:30;;;;;;;28.05;21.83;;;16.80;99.90;;;19.43;58.41;99784.78;5053125;28;20036;-79
2021/05/13 06:59:57;;;;;;;25.17;21.30;;;17.10;99.90;;;19.51;57.74;99782.59;5052760;28;20032;-79
2021/05/13 07:02:25;;;;;;;30.17;22.13;;;17.20;99.90;;;19.87;56.44;99780.53;5053795;28;20061;-79
2021/05/13 07:04:52;;;;;;;33.15;22.77;;;17.40;99.90;;;19.99;55.97;99785.50;5053968;28;20117;-80
2021/05/13 07:07:20;;;;;;;22.33;19.08;;;17.60;99.90;;;20.38;54.53;99791.00;5053878;28;20025;-81
2021/05/13 07:09:46;;;;;;;29.98;20.63;;;17.80;99.90;;;20.22;52.63;99781.69;5056019;28;20017;-80
2021/05/13 07:12:13;;;;;;;28.45;22.95;;;17.90;99.90;;;20.39;52.17;99781.22;5052667;28;20120;-82
2021/05/13 07:14:39;;;;;;;27.75;22.50;;;18.10;99.90;;;20.95;51.88;99786.59;5052579;28;20036;-83
2021/05/13 07:17:05;;;;;;;30.33;22.80;;;18.40;99.90;;;20.59;51.26;99774.63;5054674;28;20025;-82
2021/05/13 07:19:31;;;;;;;22.30;18.27;;;18.50;99.90;;;21.08;51.44;99776.06;5052161;28;20036;-83
2021/05/13 07:21:57;;;;;;;26.42;20.50;;;18.70;99.90;;;21.33;50.22;99773.28;5052658;28;20109;-81
2021/05/13 07:24:23;;;;;;;23.17;19.67;;;18.80;99.90;;;21.58;50.10;99775.34;5054060;28;20480;-82
2021/05/13 07:26:49;;;;;;;23.70;18.35;;;19.00;99.90;;;21.79;49.32;99779.56;5052341;28;20040;-81
2021/05/13 07:29:14;;;;;;;27.00;21.90;;;19.10;99.90;;;21.83;49.08;99783.09;5052027;28;20024;-82
2021/05/13 07:31:40;;;;;;;25.83;20.77;;;19.20;99.90;;;21.98;49.27;99779.38;5053805;28;20044;-81
2021/05/13 07:34:06;;;;;;;25.60;19.58;;;19.30;99.90;;;22.09;47.82;99784.66;5054536;28;20056;-81
2021/05/13 07:36:32;;;;;;;23.17;18.70;;;19.40;99.90;;;22.43;47.53;99779.03;5056201;28;20476;-81
2021/05/13 07:38:58;;;;;;;25.02;19.55;;;19.70;99.90;;;22.76;46.82;99785.22;5054629;28;20522;-80
2021/05/13 07:41:24;;;;;;;21.88;18.70;;;19.90;99.90;;;22.95;46.62;99778.41;5054898;28;20041;-82
2021/05/13 07:43:52;;;;;;;25.23;19.90;;;20.20;99.90;;;22.95;45.60;99775.56;5054384;28;20245;-83
2021/05/13 07:46:20;;;;;;;22.73;17.75;;;20.20;99.60;;;23.14;45.24;99781.38;5062133;28;20116;-79
2021/05/13 07:48:50;;;;;;;19.23;16.58;;;20.40;99.20;;;23.49;45.41;99772.28;5053271;28;20076;-81
2021/05/13 07:51:16;;;;;;;23.85;19.33;;;20.60;99.90;;;23.67;43.70;99773.59;5053271;28;20107;-82
2021/05/13 07:53:42;;;;;;;21.60;15.23;;;20.80;94.50;;;23.59;44.29;99770.28;5035046;28;20055;-83
2021/05/13 07:56:08;;;;;;;19.80;14.45;;;20.80;94.20;;;23.89;43.11;99769.41;5052283;28;20036;-83
2021/05/13 07:58:34;;;;;;;21.02;16.35;;;21.00;92.40;;;24.10;41.70;99768.56;5034878;28;20027;-82
2021/05/13 08:01:00;;;;;;;20.85;15.30;;;21.20;83.60;;;23.95;40.99;99770.38;5037255;28;20029;-80
2021/05/13 08:03:26;;;;;;;16.65;14.95;;;21.20;79.80;;;24.08;41.38;99773.16;5053104;28;20025;-80
2021/05/13 08:05:52;;;;;;;15.65;12.40;;;21.30;81.60;;;24.30;40.38;99770.22;5053018;28;20079;-82
2021/05/13 08:08:18;;;;;;;14.23;10.80;;;21.40;76.60;;;24.44;39.43;99766.72;5053387;28;20390;-80
2021/05/13 08:10:44;;;;;;;15.70;13.25;;;21.50;72.70;;;24.60;37.83;99761.50;5057648;28;20116;-83
2021/05/13 08:13:10;;;;;;;12.35;8.90;;;21.70;70.20;;;24.60;38.04;99755.00;5055546;28;20033;-84
2021/05/13 08:15:36;;;;;;;14.38;11.55;;;21.90;68.70;;;24.19;37.31;99756.38;5072555;28;20029;-83
2021/05/13 08:18:02;;;;;;;12.30;10.65;;;21.90;64.30;;;24.54;37.37;99751.19;5055223;28;20468;-83
2021/05/13 08:20:28;;;;;;;16.08;13.05;;;21.90;66.30;;;23.97;39.48;99755.66;5073510;28;20079;-84
2021/05/13 08:22:53;;;;;;;12.85;10.27;;;21.80;68.40;;;24.80;39.75;99748.81;5056261;28;20480;-82
2021/05/13 08:25:20;;;;;;;17.83;13.77;;;22.10;71.10;;;25.02;39.50;99755.97;5083035;28;20031;-82
2021/05/13 08:27:51;;;;;;;20.17;13.13;;;22.20;71.30;;;25.19;40.10;99753.56;5083712;28;20024;-78
2021/05/13 08:30:18;;;;;;;19.80;15.27;;;22.40;73.40;;;25.01;38.58;99751.50;5064898;28;20021;-83
2021/05/13 08:32:44;;;;;;;18.05;14.20;;;22.30;68.90;;;24.81;39.16;99759.78;5056698;28;20032;-81
2021/05/13 08:35:11;;;;;;;19.17;15.77;;;22.20;70.00;;;24.76;39.29;99754.69;5089491;28;20051;-79
2021/05/13 08:37:38;;;;;;;20.88;16.42;;;22.20;69.00;;;24.84;39.02;99758.06;5089509;28;20051;-79
2021/05/13 08:40:06;;;;;;;19.88;15.25;;;22.10;69.40;;;24.91;38.96;99746.31;5057771;28;20491;-82
2021/05/13 08:42:33;;;;;;;15.88;12.60;;;22.30;68.70;;;25.49;38.19;99751.72;5054648;28;20120;-83
2021/05/13 08:45:00;;;;;;;17.77;13.80;;;22.70;68.60;;;25.55;38.05;99750.63;5072270;28;20063;-84
2021/05/13 08:47:26;;;;;;;19.95;15.40;;;22.80;66.80;;;25.26;37.39;99750.38;5072700;28;20025;-83
2021/05/13 08:49:52;;;;;;;18.42;14.70;;;22.70;65.10;;;25.30;37.72;99747.34;5054753;28;20384;-84
2021/05/13 08:52:19;;;;;;;13.95;11.80;;;22.60;65.50;;;25.52;37.62;99745.88;5073398;28;20361;-84
2021/05/13 08:55:05;;;;;;;17.38;14.20;;;22.60;66.10;;;25.34;38.54;99740.16;5075636;28;20029;-82
2021/05/13 08:57:32;;;;;;;16.80;13.18;;;22.70;66.90;;;25.56;36.66;99746.47;5055625;28;20538;-82
2021/05/13 08:59:59;;;;;;;17.42;14.77;;;22.90;64.30;;;24.87;38.42;99739.97;5054990;28;20348;-81
2021/05/13 09:02:30;;;;;;;15.00;13.35;;;22.80;64.50;;;25.23;37.64;99736.25;5073666;28;20054;-82
2021/05/13 09:05:00;;;;;;;16.40;12.43;;;22.80;64.40;;;25.73;36.46;99741.16;5073559;28;20341;-81
2021/05/13 09:07:31;;;;;;;18.95;14.13;;;23.10;62.30;;;25.32;36.50;99739.06;5059000;28;20043;-81
2021/05/13 09:10:10;;;;;;;15.02;11.55;;;22.80;61.70;;;25.08;36.47;99736.09;5064580;28;20394;-81
2021/05/13 09:12:40;;;;;;;15.65;10.70;;;22.70;61.00;;;25.89;36.05;99728.53;5055291;28;20033;-82
2021/05/13 09:15:28;;;;;;;14.93;12.07;;;23.10;61.90;;;25.73;35.45;99728.94;5055528;28;20392;-81
2021/05/13 09:17:57;;;;;;;12.75;9.95;;;23.00;60.30;;;26.31;34.77;99726.38;5058053;28;20025;-82
2021/05/13 09:20:37;;;;;;;14.25;11.80;;;23.40;59.60;;;26.06;34.61;99724.00;5056670;28;20033;-80
2021/05/13 09:23:28;;;;;;;11.57;8.90;;;23.60;58.70;;;26.76;34.10;99727.28;5057563;28;20063;-80
2021/05/13 09:26:11;;;;;;;12.93;10.50;;;23.90;58.60;;;26.40;32.91;99723.44;5056397;28;20037;-82
2021/05/13 09:28:41;;;;;;;13.15;9.20;;;23.90;56.10;;;26.73;33.74;99724.13;5056388;28;20032;-80
2021/05/13 09:31:08;;;;;;;8.23;7.07;;;23.90;57.50;;;26.56;32.04;99716.47;5055386;28;20029;-81
2021/05/13 09:33:42;;;;;;;10.15;7.40;;;24.00;54.60;;;26.00;33.02;99711.63;5071746;28;20418;-80
2021/05/13 09:36:25;;;;;;;8.65;5.63;;;23.60;56.10;;;24.85;34.63;99713.94;5056219;28;20025;-80
2021/05/13 09:38:52;;;;;;;8.77;7.57;;;22.70;56.70;;;23.57;36.03;99712.91;5054659;28;20513;-81
2021/05/13 09:41:36;;;;;;;9.70;7.63;;;21.70;57.70;;;22.52;40.10;99719.38;5054514;28;20029;-80
2021/05/13 09:44:43;;;;;;;9.00;7.18;;;20.90;63.50;;;22.41;39.28;99707.56;5056507;28;20017;-82
2021/05/13 09:47:28;;;;;;;12.48;8.77;;;20.50;63.40;;;21.83;39.62;99707.13;5055401;28;20075;-80
2021/05/13 09:50:21;;;;;;;12.13;9.40;;;19.90;63.70;;;21.74;40.93;99707.03;5054027;28;20124;-83
2021/05/13 09:52:52;;;;;;;9.57;7.85;;;19.70;65.70;;;23.08;39.08;99707.94;5054057;28;20507;-82
2021/05/13 09:55:31;;;;;;;16.33;7.60;;;20.60;65.80;;;24.44;37.45;99701.06;5055175;28;20086;-80
2021/05/13 09:58:06;;;;;;;11.65;6.50;;;21.60;64.60;;;25.69;34.94;99698.44;5055679;28;20024;-80
2021/05/13 10:00:43;;;;;;;8.80;6.28;;;22.50;60.10;;;26.29;33.25;99705.25;5053474;28;20051;-79
2021/05/13 10:03:23;;;;;;;7.15;5.68;;;23.40;57.20;;;27.14;30.94;99705.13;5055438;28;20063;-81
2021/05/13 10:05:53;;;;;;;5.75;4.30;;;24.20;53.90;;;27.16;29.68;99698.91;5055763;28;20088;-76
2021/05/13 10:08:21;;;;;;;6.68;4.28;;;24.40;50.90;;;27.53;30.79;99696.41;5058786;28;20044;-81
2021/05/13 10:10:48;;;;;;;7.63;5.00;;;24.80;52.50;;;27.79;31.90;99690.81;5056631;28;20103;-81
2021/05/13 10:13:18;;;;;;;6.88;4.18;;;25.00;54.10;;;28.42;29.96;99695.59;5054341;28;20025;-81
2021/05/13 10:15:45;;;;;;;9.48;6.00;;;25.30;51.80;;;28.13;29.48;99687.94;5053566;28;20538;-81
2021/05/13 10:18:40;;;;;;;9.88;6.10;;;25.30;50.50;;;28.23;30.62;99685.72;5053120;28;20090;-80
2021/05/13 10:21:23;;;;;;;8.55;6.50;;;25.40;52.40;;;27.61;31.46;99677.53;5055378;28;20094;-81
2021/05/13 10:23:54;;;;;;;9.65;7.05;;;25.30;51.30;;;27.18;31.50;99682.00;5054110;28;20029;-80
2021/05/13 10:26:33;;;;;;;10.20;6.60;;;25.00;51.80;;;26.04;32.62;99672.19;5053839;28;20036;-80